Time;durP1;ratioP1;P1;durP2;ratioP2;P2;SDS_P1;SDS_P2;PMS_P1;PMS_P2;Temp;Humidity;BMP_temperature;BMP_pressure;BME280_temperature;BME280_humidity;BME280_pressure;Samples;Min_cycle;Max_cycle;Signal;HPM_P1;HPM_P2
2021/11/02 00:00:47;;;;;;;;;;;281.60;2278.40;;;;;;4973459;28;20283;-74
2021/11/02 00:03:12;;;;;;;;;;;281.70;2278.40;;;;;;4974643;28;19917;-72
2021/11/02 00:05:38;;;;;;;;;;;281.70;2278.40;;;;;;4974334;28;20017;-72
2021/11/02 00:08:04;;;;;;;;;;;281.70;2278.40;;;;;;4974893;28;19906;-72
2021/11/02 00:10:29;;;;;;;;;;;256.90;2252.80;;;;;;4974695;28;19910;-72
2021/11/02 00:12:56;;;;;;;;;;;281.60;2278.40;;;;;;4975018;28;19906;-72
2021/11/02 00:15:24;;;;;;;;;;;281.60;2278.40;;;;;;4973095;28;20249;-72
2021/11/02 00:17:53;;;;;;;;;;;281.70;2278.40;;;;;;4974580;28;19957;-72
2021/11/02 00:20:19;;;;;;;;;;;281.60;2278.40;;;;;;4974440;28;19921;-72
2021/11/02 00:22:54;;;;;;;;;;;281.60;2278.40;;;;;;4974861;28;20245;-72
2021/11/02 00:25:23;;;;;;;;;;;256.90;2252.80;;;;;;4973391;28;19961;-73
2021/11/02 00:27:49;;;;;;;;;;;256.90;2252.80;;;;;;4974053;28;20265;-71
2021/11/02 00:30:15;;;;;;;;;;;256.90;2252.80;;;;;;4974132;28;20009;-73
2021/11/02 00:32:42;;;;;;;;;;;256.90;2252.80;;;;;;4973196;28;19934;-72
2021/11/02 00:35:08;;;;;;;;;;;256.90;2252.80;;;;;;4974520;28;19937;-72
2021/11/02 00:37:34;;;;;;;;;;;256.90;2252.80;;;;;;4974257;28;19906;-73
2021/11/02 00:40:01;;;;;;;;;;;256.80;2252.80;;;;;;4974404;28;19961;-72
2021/11/02 00:43:12;;;;;;;;;;;256.80;2252.80;;;;;;4974480;28;19956;-72
2021/11/02 00:45:13;;;;;;;;;;;256.80;2252.80;;;;;;4965961;28;19906;-73
2021/11/02 00:47:39;;;;;;;;;;;256.80;2252.80;;;;;;4974127;28;19914;-72
2021/11/02 00:50:10;;;;;;;;;;;256.80;2252.80;;;;;;4973852;28;19906;-72
2021/11/02 00:52:37;;;;;;;;;;;256.90;2252.80;;;;;;4974138;28;20381;-73
2021/11/02 00:55:03;;;;;;;;;;;256.90;2252.80;;;;;;4973952;28;19914;-72
2021/11/02 00:57:29;;;;;;;;;;;256.90;2252.80;;;;;;4973787;28;19929;-72
2021/11/02 00:59:54;;;;;;;;;;;256.90;2252.80;;;;;;4973877;28;20356;-72
2021/11/02 01:02:20;;;;;;;;;;;256.90;2252.80;;;;;;4973530;28;19961;-72
2021/11/02 01:04:47;;;;;;;;;;;256.90;2252.80;;;;;;4973957;28;19978;-72
2021/11/02 01:07:12;;;;;;;;;;;256.90;2252.80;;;;;;4973663;28;19909;-73
2021/11/02 01:09:38;;;;;;;;;;;256.90;2252.80;;;;;;4973949;28;19906;-72
2021/11/02 01:12:04;;;;;;;;;;;256.90;2252.80;;;;;;4973416;28;20387;-73
2021/11/02 01:14:29;;;;;;;;;;;256.90;2252.80;;;;;;4973986;28;19949;-78
2021/11/02 01:16:55;;;;;;;;;;;256.80;2252.80;;;;;;4973677;28;19906;-73
2021/11/02 01:19:21;;;;;;;;;;;256.80;2252.80;;;;;;4973596;28;20360;-72
2021/11/02 01:21:47;;;;;;;;;;;256.90;2252.80;;;;;;4971081;28;20020;-72
2021/11/02 01:24:12;;;;;;;;;;;256.80;2252.80;;;;;;4961019;28;20294;-72
2021/11/02 01:26:38;;;;;;;;;;;256.90;2252.80;;;;;;4961760;28;19953;-73
2021/11/02 01:29:04;;;;;;;;;;;256.90;2252.80;;;;;;4961262;28;20001;-72
2021/11/02 01:31:29;;;;;;;;;;;281.60;2278.40;;;;;;4961909;28;20215;-74
2021/11/02 01:33:55;;;;;;;;;;;281.60;2278.40;;;;;;4964678;28;20335;-72
2021/11/02 01:36:21;;;;;;;;;;;256.90;2252.80;;;;;;4961779;28;19956;-74
2021/11/02 01:38:47;;;;;;;;;;;281.70;2278.40;;;;;;4964722;28;19907;-74
2021/11/02 01:41:25;;;;;;;;;;;281.70;2278.40;;;;;;4965267;28;20339;-77
2021/11/02 01:43:52;;;;;;;;;;;281.70;2278.40;;;;;;4964627;28;20311;-73
2021/11/02 01:46:28;;;;;;;;;;;281.70;2278.40;;;;;;4964968;28;19906;-72
2021/11/02 01:48:55;;;;;;;;;;;281.70;2278.40;;;;;;4963840;28;19957;-73
2021/11/02 01:51:22;;;;;;;;;;;281.60;2278.40;;;;;;4962474;28;19921;-73
2021/11/02 01:53:47;;;;;;;;;;;281.60;2278.40;;;;;;4964695;28;19922;-73
2021/11/02 01:56:13;;;;;;;;;;;281.60;2278.40;;;;;;4969944;28;19910;-73
2021/11/02 01:58:40;;;;;;;;;;;256.90;2252.80;;;;;;4963022;28;19910;-80
2021/11/02 02:01:07;;;;;;;;;;;256.90;2252.80;;;;;;4964166;28;19910;-72
2021/11/02 02:03:36;;;;;;;;;;;256.90;2252.80;;;;;;4963368;28;19942;-73
2021/11/02 02:06:05;;;;;;;;;;;281.60;2278.40;;;;;;4962703;28;20001;-72
2021/11/02 02:08:40;;;;;;;;;;;256.90;2252.80;;;;;;4963749;28;20241;-75
2021/11/02 02:11:08;;;;;;;;;;;256.90;2252.80;;;;;;4965073;28;19918;-72
2021/11/02 02:13:37;;;;;;;;;;;256.90;2252.80;;;;;;4963355;28;20001;-73
2021/11/02 02:16:19;;;;;;;;;;;256.90;2252.80;;;;;;4964481;28;20368;-73
2021/11/02 02:18:59;;;;;;;;;;;256.90;2252.80;;;;;;4964466;28;19938;-73
2021/11/02 02:21:43;;;;;;;;;;;281.60;2278.40;;;;;;4964138;28;19910;-72
2021/11/02 02:24:27;;;;;;;;;;;281.60;2278.40;;;;;;4964072;28;19961;-72
2021/11/02 02:27:08;;;;;;;;;;;281.70;2278.40;;;;;;4964401;28;19906;-73
2021/11/02 02:29:37;;;;;;;;;;;281.70;2278.40;;;;;;4967889;28;20403;-73
2021/11/02 02:32:04;;;;;;;;;;;281.70;2278.40;;;;;;4961755;28;19931;-77
2021/11/02 02:34:30;;;;;;;;;;;281.80;2278.40;;;;;;4965180;28;20348;-73
2021/11/02 02:36:56;;;;;;;;;;;281.80;2278.40;;;;;;4963075;28;19917;-72
2021/11/02 02:39:22;;;;;;;;;;;282.00;2278.40;;;;;;4964391;28;19945;-72
2021/11/02 02:41:50;;;;;;;;;;;281.80;2278.40;;;;;;4964103;28;20253;-73
2021/11/02 02:44:16;;;;;;;;;;;281.90;2278.40;;;;;;4963460;28;19906;-73
2021/11/02 02:46:42;;;;;;;;;;;281.90;2278.40;;;;;;4962048;28;20340;-72
2021/11/02 02:49:09;;;;;;;;;;;281.80;2278.40;;;;;;4972304;28;20267;-72
2021/11/02 02:51:35;;;;;;;;;;;281.90;2278.40;;;;;;4964901;28;19914;-72
2021/11/02 02:54:02;;;;;;;;;;;281.80;2278.40;;;;;;4962308;28;20335;-73
2021/11/02 02:56:29;;;;;;;;;;;282.00;2278.40;;;;;;4967615;28;19910;-74
2021/11/02 02:58:55;;;;;;;;;;;282.00;2278.40;;;;;;4966199;28;20001;-72
2021/11/02 03:01:22;;;;;;;;;;;282.00;2278.40;;;;;;4965405;28;20261;-72
2021/11/02 03:03:53;;;;;;;;;;;282.00;2278.40;;;;;;4972037;28;20335;-72
2021/11/02 03:06:21;;;;;;;;;;;282.10;2278.40;;;;;;4966250;28;19906;-74
2021/11/02 03:08:47;;;;;;;;;;;282.10;2278.40;;;;;;4974005;28;20001;-72
2021/11/02 03:11:14;;;;;;;;;;;282.10;2278.40;;;;;;4972298;28;20006;-72
2021/11/02 03:13:45;;;;;;;;;;;282.20;2278.40;;;;;;4965900;28;20368;-73
2021/11/02 03:16:13;;;;;;;;;;;282.20;2278.40;;;;;;4969518;28;19909;-73
2021/11/02 03:44:29;;;;;;;;;;;282.30;2278.40;;;;;;4877205;29;19915;-73
2021/11/02 03:49:54;;;;;;;;;;;282.30;2278.40;;;;;;4876518;29;20189;-72
2021/11/02 03:54:56;;;;;;;;;;;282.40;2278.40;;;;;;4878308;29;19939;-73
2021/11/02 04:25:15;;;;;;;;;;;307.30;2304.00;;;;;;4969488;28;19956;-72
2021/11/02 04:44:02;;;;;;;;;;;307.50;2304.00;;;;;;4966299;28;20411;-72
2021/11/02 05:10:43;;;;;;;;;;;307.40;2304.00;;;;;;4968916;28;19952;-73
2021/11/02 05:48:49;;;;;;;;;;;282.50;2278.40;;;;;;4964742;28;20398;-75
2021/11/02 05:52:27;;;;;;;;;;;282.50;2278.40;;;;;;4969382;28;20364;-74
2021/11/02 05:56:48;;;;;;;;;;;282.30;2278.40;;;;;;4961987;28;19910;-75
2021/11/02 06:06:48;;;;;;;;;;;282.30;2278.40;;;;;;4962324;28;20319;-76
2021/11/02 06:09:27;;;;;;;;;;;282.20;2278.40;;;;;;4965067;28;19910;-77
2021/11/02 06:28:48;;;;;;;;;;;281.60;2278.40;;;;;;4966408;28;20367;-78
2021/11/02 06:31:19;;;;;;;;;;;281.70;2278.40;;;;;;4970406;28;19972;-80
2021/11/02 06:36:31;;;;;;;;;;;281.70;2278.40;;;;;;4973887;28;19928;-80
2021/11/02 06:53:08;;;;;;;;;;;281.70;2278.40;;;;;;4929592;29;20437;-76
2021/11/02 07:20:39;;;;;;;;;;;281.70;2278.40;;;;;;4917546;29;19914;-81
2021/11/02 08:46:24;;;;;;;;;;;307.30;2304.00;;;;;;4961856;28;20383;-79
2021/11/02 08:48:55;;;;;;;;;;;307.20;2304.00;;;;;;4968978;28;19910;-80
2021/11/02 08:51:22;;;;;;;;;;;282.50;2278.40;;;;;;4972393;28;19922;-81
2021/11/02 08:53:48;;;;;;;;;;;282.50;2278.40;;;;;;4971875;28;20373;-77
2021/11/02 08:56:15;;;;;;;;;;;307.20;2048.00;;;;;;4971701;28;20387;-81
2021/11/02 08:58:43;;;;;;;;;;;307.20;2304.00;;;;;;4971448;28;19917;-82
2021/11/02 09:01:09;;;;;;;;;;;307.20;2304.00;;;;;;4971490;28;19914;-74
2021/11/02 09:03:37;;;;;;;;;;;307.30;2304.00;;;;;;4966471;28;20268;-78
2021/11/02 09:06:05;;;;;;;;;;;307.30;2304.00;;;;;;4972257;28;19906;-79
2021/11/02 09:08:36;;;;;;;;;;;307.30;2304.00;;;;;;4964723;28;19910;-81
2021/11/02 09:11:02;;;;;;;;;;;307.40;2304.00;;;;;;4970587;28;20279;-74
2021/11/02 09:13:27;;;;;;;;;;;307.40;2304.00;;;;;;4964475;28;19983;-72
2021/11/02 09:15:56;;;;;;;;;;;307.50;2304.00;;;;;;4971124;28;20030;-73
2021/11/02 09:18:22;;;;;;;;;;;307.50;2304.00;;;;;;4962751;28;19983;-73
2021/11/02 09:20:48;;;;;;;;;;;307.50;2304.00;;;;;;4964753;28;20048;-76
2021/11/02 09:23:14;;;;;;;;;;;307.50;2304.00;;;;;;4971012;28;20380;-76
2021/11/02 09:25:40;;;;;;;;;;;307.40;2304.00;;;;;;4963420;28;19926;-75
2021/11/02 09:28:05;;;;;;;;;;;307.30;2304.00;;;;;;4972912;28;19909;-80
2021/11/02 09:30:31;;;;;;;;;;;307.30;2304.00;;;;;;4973782;28;20335;-75
2021/11/02 09:32:57;;;;;;;;;;;307.50;2304.00;;;;;;4972789;28;19981;-79
2021/11/02 09:35:27;;;;;;;;;;;282.50;2278.40;;;;;;4971192;28;20328;-75
2021/11/02 09:37:59;;;;;;;;;;;307.30;2304.00;;;;;;4971863;28;20275;-77
2021/11/02 09:40:31;;;;;;;;;;;307.20;2304.00;;;;;;4970510;28;19917;-79
2021/11/02 09:43:04;;;;;;;;;;;307.20;2099.20;;;;;;4970507;28;19921;-78
2021/11/02 09:45:49;;;;;;;;;;;307.30;2304.00;;;;;;4965579;28;19929;-78
2021/11/02 09:48:15;;;;;;;;;;;307.40;2304.00;;;;;;4970029;28;19977;-79
2021/11/02 09:50:51;;;;;;;;;;;307.60;2278.40;;;;;;4964673;28;20260;-78
2021/11/02 09:53:44;;;;;;;;;;;307.60;2304.00;;;;;;4971561;28;20291;-77
2021/11/02 09:56:29;;;;;;;;;;;307.80;2304.00;;;;;;4973626;28;20009;-77
2021/11/02 09:59:04;;;;;;;;;;;308.00;2304.00;;;;;;4973812;28;19913;-78
2021/11/02 10:01:49;;;;;;;;;;;308.00;2304.00;;;;;;4970322;28;20392;-79
2021/11/02 10:04:20;;;;;;;;;;;308.00;2304.00;;;;;;4955807;28;20005;-80
2021/11/02 10:06:57;;;;;;;;;;;308.10;2304.00;;;;;;4978146;28;20375;-79
2021/11/02 10:09:27;;;;;;;;;;;308.10;2304.00;;;;;;4975824;28;19906;-78
2021/11/02 10:12:02;;;;;;;;;;;308.10;2304.00;;;;;;4977629;28;20427;-82
2021/11/02 10:14:35;;;;;;;;;;;332.80;2329.60;;;;;;4977820;28;19968;-79
2021/11/02 10:17:18;;;;;;;;;;;308.10;2304.00;;;;;;4977714;28;19949;-80
2021/11/02 10:20:04;;;;;;;;;;;308.10;2304.00;;;;;;4976236;28;19934;-78
2021/11/02 10:22:57;;;;;;;;;;;308.10;2304.00;;;;;;4976011;28;19906;-76
2021/11/02 10:25:38;;;;;;;;;;;308.10;2304.00;;;;;;4969317;28;19997;-76
2021/11/02 10:28:04;;;;;;;;;;;308.10;2304.00;;;;;;4976937;28;19910;-77
2021/11/02 10:30:30;;;;;;;;;;;308.10;2304.00;;;;;;4982419;28;19918;-77
2021/11/02 10:33:00;;;;;;;;;;;308.10;2304.00;;;;;;4990309;28;20009;-75
2021/11/02 10:35:25;;;;;;;;;;;308.10;2304.00;;;;;;4972668;28;19946;-74
2021/11/02 10:38:10;;;;;;;;;;;332.80;2329.60;;;;;;4975639;28;20343;-75
2021/11/02 10:40:42;;;;;;;;;;;333.00;2329.60;;;;;;4958313;28;19989;-74
2021/11/02 10:43:27;;;;;;;;;;;333.10;2329.60;;;;;;4974360;28;20337;-74
2021/11/02 10:46:03;;;;;;;;;;;333.20;2329.60;;;;;;4974789;28;19910;-75
2021/11/02 10:48:34;;;;;;;;;;;333.30;2329.60;;;;;;4974037;28;19988;-74
2021/11/02 10:51:04;;;;;;;;;;;333.50;2329.60;;;;;;4976423;28;19930;-80
2021/11/02 10:53:36;;;;;;;;;;;358.40;2329.60;;;;;;4973107;28;19965;-78
2021/11/02 10:56:10;;;;;;;;;;;333.60;2329.60;;;;;;4974654;28;21230;-79
2021/11/02 10:58:42;;;;;;;;;;;333.60;2329.60;;;;;;4975306;28;19910;-77
2021/11/02 11:01:09;;;;;;;;;;;333.60;2329.60;;;;;;4972384;28;19914;-80
2021/11/02 11:03:36;;;;;;;;;;;358.40;2329.60;;;;;;4975851;28;19910;-79
2021/11/02 11:06:11;;;;;;;;;;;358.50;2329.60;;;;;;4975179;28;19910;-79
2021/11/02 11:08:38;;;;;;;;;;;358.40;2329.60;;;;;;4975724;28;19929;-79
2021/11/02 11:11:08;;;;;;;;;;;333.70;2329.60;;;;;;4975994;28;19906;-81
2021/11/02 11:13:34;;;;;;;;;;;333.70;2329.60;;;;;;4975432;28;19926;-80
2021/11/02 11:16:10;;;;;;;;;;;358.40;2329.60;;;;;;4974201;28;19960;-80
2021/11/02 11:18:53;;;;;;;;;;;358.50;2329.60;;;;;;4975170;28;20352;-80
2021/11/02 11:21:25;;;;;;;;;;;358.60;2329.60;;;;;;4973566;28;19914;-79
2021/11/02 11:23:55;;;;;;;;;;;358.70;2329.60;;;;;;4975046;28;19969;-78
2021/11/02 11:26:23;;;;;;;;;;;358.80;2329.60;;;;;;4975183;28;19985;-78
2021/11/02 11:28:49;;;;;;;;;;;358.90;2329.60;;;;;;4976300;28;19906;-81
2021/11/02 11:31:16;;;;;;;;;;;359.00;2329.60;;;;;;4975438;28;20368;-80
2021/11/02 11:33:42;;;;;;;;;;;384.40;2329.60;;;;;;4975918;28;19918;-81
2021/11/02 11:36:08;;;;;;;;;;;384.50;2329.60;;;;;;4974472;28;20423;-80
2021/11/02 11:38:38;;;;;;;;;;;384.40;2329.60;;;;;;4974816;28;19914;-80
2021/11/02 11:41:05;;;;;;;;;;;384.60;2329.60;;;;;;4973523;28;19906;-80
2021/11/02 11:43:32;;;;;;;;;;;384.80;2329.60;;;;;;4975740;28;19907;-80
2021/11/02 11:45:59;;;;;;;;;;;384.90;2329.60;;;;;;4974968;28;20460;-77
2021/11/02 11:48:26;;;;;;;;;;;410.00;2355.20;;;;;;4973133;28;20352;-80
2021/11/02 11:50:52;;;;;;;;;;;410.20;2355.20;;;;;;4975792;28;19910;-80
2021/11/02 11:53:18;;;;;;;;;;;410.20;2355.20;;;;;;4975380;28;20449;-80
2021/11/02 11:55:46;;;;;;;;;;;410.20;2355.20;;;;;;4972890;28;19945;-80
2021/11/02 11:58:12;;;;;;;;;;;410.10;2355.20;;;;;;4975761;28;20012;-80
2021/11/02 12:00:45;;;;;;;;;;;410.20;2355.20;;;;;;4975423;28;19949;-81
2021/11/02 12:03:23;;;;;;;;;;;410.20;2355.20;;;;;;4974119;28;20013;-80
2021/11/02 12:06:01;;;;;;;;;;;410.30;2355.20;;;;;;4974887;28;19929;-79
2021/11/02 12:08:41;;;;;;;;;;;410.20;2355.20;;;;;;4975741;28;19906;-80
2021/11/02 12:11:07;;;;;;;;;;;410.40;2355.20;;;;;;4975775;28;19906;-81
2021/11/02 12:13:38;;;;;;;;;;;410.50;2355.20;;;;;;4975652;28;19913;-79
2021/11/02 12:16:13;;;;;;;;;;;435.20;2355.20;;;;;;4976062;28;19910;-80
2021/11/02 12:18:41;;;;;;;;;;;435.30;2355.20;;;;;;4958636;28;19906;-79
2021/11/02 12:21:11;;;;;;;;;;;435.30;2355.20;;;;;;4958372;28;19996;-81
2021/11/02 12:23:40;;;;;;;;;;;435.30;2355.20;;;;;;4958475;28;19906;-79
2021/11/02 12:26:08;;;;;;;;;;;435.50;2355.20;;;;;;4957716;28;19957;-80
2021/11/02 12:28:45;;;;;;;;;;;435.50;2355.20;;;;;;4973225;28;20004;-80
2021/11/02 12:31:12;;;;;;;;;;;435.50;2355.20;;;;;;4955977;28;19957;-80
2021/11/02 12:33:43;;;;;;;;;;;435.50;2355.20;;;;;;4974914;28;19925;-79
2021/11/02 12:36:11;;;;;;;;;;;435.50;2355.20;;;;;;4973893;28;19906;-81
2021/11/02 12:38:41;;;;;;;;;;;435.30;2355.20;;;;;;4973307;28;20021;-77
2021/11/02 12:41:17;;;;;;;;;;;435.50;2355.20;;;;;;4955931;28;19953;-80
2021/11/02 12:43:43;;;;;;;;;;;435.50;2355.20;;;;;;4974916;28;20364;-80
2021/11/02 12:46:09;;;;;;;;;;;435.40;2355.20;;;;;;4974506;28;19982;-81
2021/11/02 12:48:36;;;;;;;;;;;435.30;2355.20;;;;;;4974049;28;19906;-80
2021/11/02 12:51:03;;;;;;;;;;;410.50;2355.20;;;;;;4972788;28;19953;-80
2021/11/02 12:53:31;;;;;;;;;;;410.50;2355.20;;;;;;4973809;28;19917;-79
2021/11/02 12:55:57;;;;;;;;;;;410.50;2355.20;;;;;;4972496;28;20374;-77
2021/11/02 12:58:23;;;;;;;;;;;435.20;2355.20;;;;;;4972711;28;19906;-79
2021/11/02 13:00:53;;;;;;;;;;;410.50;2355.20;;;;;;4973539;28;19997;-80
2021/11/02 13:03:27;;;;;;;;;;;435.30;2355.20;;;;;;4973183;28;19918;-78
2021/11/02 13:06:08;;;;;;;;;;;435.40;2355.20;;;;;;4973874;28;19910;-75
2021/11/02 13:08:35;;;;;;;;;;;435.40;2355.20;;;;;;4972436;28;19906;-76
2021/11/02 13:11:05;;;;;;;;;;;435.20;2355.20;;;;;;4972609;28;19938;-75
2021/11/02 13:13:37;;;;;;;;;;;435.30;2355.20;;;;;;4973813;28;19957;-78
2021/11/02 13:16:03;;;;;;;;;;;435.20;2355.20;;;;;;4973976;28;19941;-81
2021/11/02 13:18:32;;;;;;;;;;;435.20;2355.20;;;;;;4971837;28;19956;-79
2021/11/02 13:21:16;;;;;;;;;;;410.50;2355.20;;;;;;4972103;28;19945;-78
2021/11/02 13:23:43;;;;;;;;;;;410.50;2355.20;;;;;;4972062;28;19945;-79
2021/11/02 13:26:13;;;;;;;;;;;410.40;2355.20;;;;;;4971972;28;19917;-78
2021/11/02 13:28:39;;;;;;;;;;;410.30;2355.20;;;;;;4971545;28;19917;-78
2021/11/02 13:31:04;;;;;;;;;;;410.30;2355.20;;;;;;4971758;28;19918;-78
2021/11/02 13:33:31;;;;;;;;;;;410.00;2355.20;;;;;;4971332;28;19993;-78
2021/11/02 13:36:04;;;;;;;;;;;410.00;2355.20;;;;;;4970544;28;19906;-79
2021/11/02 13:38:36;;;;;;;;;;;409.90;2355.20;;;;;;4965902;28;19990;-81
2021/11/02 13:41:04;;;;;;;;;;;409.80;2355.20;;;;;;4970742;28;19906;-78
2021/11/02 13:43:34;;;;;;;;;;;410.00;2355.20;;;;;;4970492;28;19913;-79
2021/11/02 13:46:00;;;;;;;;;;;410.10;2355.20;;;;;;4972129;28;19949;-79
2021/11/02 13:48:26;;;;;;;;;;;410.20;2355.20;;;;;;4970824;28;20356;-77
2021/11/02 13:50:53;;;;;;;;;;;410.30;2355.20;;;;;;4969114;28;19933;-78
2021/11/02 13:53:20;;;;;;;;;;;410.30;2355.20;;;;;;4971955;28;19952;-78
2021/11/02 13:55:46;;;;;;;;;;;410.30;2355.20;;;;;;4972136;28;19917;-77
2021/11/02 13:58:11;;;;;;;;;;;410.30;2355.20;;;;;;4960610;28;19910;-77
2021/11/02 14:00:37;;;;;;;;;;;410.30;2355.20;;;;;;4961294;28;19922;-77
2021/11/02 14:03:05;;;;;;;;;;;410.20;2355.20;;;;;;4963751;28;19914;-78
2021/11/02 14:05:32;;;;;;;;;;;410.20;2355.20;;;;;;4964519;28;19914;-79
2021/11/02 14:07:57;;;;;;;;;;;410.20;2355.20;;;;;;4961891;28;20342;-79
2021/11/02 14:10:29;;;;;;;;;;;410.30;2355.20;;;;;;4963124;28;20024;-77
2021/11/02 14:12:55;;;;;;;;;;;410.30;2355.20;;;;;;4963997;28;20012;-78
2021/11/02 14:15:21;;;;;;;;;;;410.50;2355.20;;;;;;4962469;28;19906;-78
2021/11/02 14:18:14;;;;;;;;;;;410.50;2355.20;;;;;;4969267;28;19921;-77
2021/11/02 14:20:39;;;;;;;;;;;410.40;2355.20;;;;;;4966626;28;20273;-78
2021/11/02 14:23:06;;;;;;;;;;;435.20;2355.20;;;;;;4970560;28;19918;-79
2021/11/02 14:25:36;;;;;;;;;;;435.20;2355.20;;;;;;4963558;28;19917;-77
2021/11/02 14:28:02;;;;;;;;;;;435.30;2355.20;;;;;;4965346;28;19941;-79
2021/11/02 14:30:31;;;;;;;;;;;435.30;2355.20;;;;;;4971184;28;19918;-77
2021/11/02 14:32:59;;;;;;;;;;;435.30;2355.20;;;;;;4969775;28;19922;-78
2021/11/02 14:35:34;;;;;;;;;;;435.30;2355.20;;;;;;4972945;28;19910;-78
2021/11/02 14:38:02;;;;;;;;;;;435.20;2355.20;;;;;;4974160;28;19910;-78
2021/11/02 14:40:29;;;;;;;;;;;435.20;2355.20;;;;;;4972269;28;19918;-78
2021/11/02 14:42:59;;;;;;;;;;;435.20;2355.20;;;;;;4972639;28;19957;-78
2021/11/02 14:45:36;;;;;;;;;;;435.20;2355.20;;;;;;4971236;28;19917;-76
2021/11/02 14:48:20;;;;;;;;;;;410.50;2355.20;;;;;;4972204;28;20359;-75
2021/11/02 14:50:49;;;;;;;;;;;435.20;2355.20;;;;;;4973659;28;19914;-76
2021/11/02 14:53:16;;;;;;;;;;;410.50;2355.20;;;;;;4975376;28;19921;-78
2021/11/02 14:55:49;;;;;;;;;;;410.50;2355.20;;;;;;4975845;28;19914;-79
2021/11/02 14:58:33;;;;;;;;;;;410.50;2355.20;;;;;;4973149;28;19910;-79
2021/11/02 15:00:59;;;;;;;;;;;410.30;2355.20;;;;;;4975031;28;19910;-79
2021/11/02 15:03:32;;;;;;;;;;;410.30;2355.20;;;;;;4973621;28;20363;-76
2021/11/02 15:06:09;;;;;;;;;;;410.20;2355.20;;;;;;4976463;28;20348;-77
2021/11/02 15:08:38;;;;;;;;;;;410.20;2355.20;;;;;;4973660;28;19920;-79
2021/11/02 15:11:11;;;;;;;;;;;410.20;2355.20;;;;;;4975961;28;19925;-79
2021/11/02 15:13:45;;;;;;;;;;;410.20;2355.20;;;;;;4976400;28;20364;-77
2021/11/02 15:16:11;;;;;;;;;;;410.20;2355.20;;;;;;4972660;28;19938;-79
2021/11/02 15:18:38;;;;;;;;;;;410.20;2355.20;;;;;;4959171;28;19906;-81
2021/11/02 15:21:03;;;;;;;;;;;410.00;2355.20;;;;;;4975950;28;20403;-77
2021/11/02 15:23:39;;;;;;;;;;;410.00;2355.20;;;;;;4976387;28;19941;-79
2021/11/02 15:26:05;;;;;;;;;;;410.10;2355.20;;;;;;4976030;28;19918;-80
2021/11/02 15:28:38;;;;;;;;;;;409.90;2355.20;;;;;;4975856;28;19917;-77
2021/11/02 15:31:04;;;;;;;;;;;409.80;2355.20;;;;;;4974718;28;19922;-78
2021/11/02 15:33:32;;;;;;;;;;;409.80;2355.20;;;;;;4975628;28;19945;-81
2021/11/02 15:36:13;;;;;;;;;;;409.70;2355.20;;;;;;4975567;28;20356;-77
2021/11/02 15:38:39;;;;;;;;;;;409.70;2355.20;;;;;;4975920;28;19915;-79
2021/11/02 15:41:17;;;;;;;;;;;409.70;2355.20;;;;;;4975635;28;20253;-81
2021/11/02 15:43:53;;;;;;;;;;;409.70;2355.20;;;;;;4975964;28;19910;-81
2021/11/02 15:46:20;;;;;;;;;;;409.60;2355.20;;;;;;4975555;28;20194;-76
2021/11/02 15:48:45;;;;;;;;;;;384.90;2329.60;;;;;;4955404;28;19929;-76
2021/11/02 15:51:15;;;;;;;;;;;384.90;2329.60;;;;;;4958665;28;19910;-84
2021/11/02 15:53:40;;;;;;;;;;;384.90;2329.60;;;;;;4973484;28;19913;-77
2021/11/02 15:56:06;;;;;;;;;;;384.80;2329.60;;;;;;4973829;28;19906;-79
2021/11/02 15:58:33;;;;;;;;;;;384.80;2329.60;;;;;;4973758;28;20005;-79
2021/11/02 16:00:59;;;;;;;;;;;384.80;2329.60;;;;;;4970964;28;19925;-80
2021/11/02 16:03:34;;;;;;;;;;;384.70;2329.60;;;;;;4974330;28;20412;-81
2021/11/02 16:06:02;;;;;;;;;;;384.70;2329.60;;;;;;4975255;28;20372;-77
2021/11/02 16:08:28;;;;;;;;;;;384.70;2329.60;;;;;;4975505;28;19906;-77
2021/11/02 16:11:01;;;;;;;;;;;384.50;2329.60;;;;;;4974274;28;19976;-78
2021/11/02 16:13:28;;;;;;;;;;;384.30;2329.60;;;;;;4971485;28;19914;-78
2021/11/02 16:15:55;;;;;;;;;;;384.20;2329.60;;;;;;4974167;28;20012;-76
2021/11/02 16:18:24;;;;;;;;;;;384.10;2329.60;;;;;;4973883;28;19914;-76
2021/11/02 16:20:54;;;;;;;;;;;384.10;2329.60;;;;;;4971366;28;19906;-77
2021/11/02 16:23:22;;;;;;;;;;;384.00;2329.60;;;;;;4974844;28;19906;-78
2021/11/02 16:25:55;;;;;;;;;;;359.30;2329.60;;;;;;4972186;28;19964;-80
2021/11/02 16:28:22;;;;;;;;;;;359.20;2329.60;;;;;;4973516;28;19914;-79
2021/11/02 16:30:49;;;;;;;;;;;359.20;2329.60;;;;;;4974789;28;19925;-82
2021/11/02 16:33:18;;;;;;;;;;;359.10;2329.60;;;;;;4973651;28;19926;-79
2021/11/02 16:35:45;;;;;;;;;;;359.10;2329.60;;;;;;4974428;28;19980;-78
2021/11/02 16:38:17;;;;;;;;;;;359.00;2329.60;;;;;;4973784;28;20043;-81
2021/11/02 16:40:48;;;;;;;;;;;358.90;2329.60;;;;;;4972423;28;19917;-81
2021/11/02 16:43:13;;;;;;;;;;;358.90;2329.60;;;;;;4955538;28;19965;-81
2021/11/02 16:45:39;;;;;;;;;;;358.90;2329.60;;;;;;4980496;28;19905;-79
2021/11/02 16:48:06;;;;;;;;;;;358.90;2329.60;;;;;;4972856;28;19920;-77
2021/11/02 16:50:34;;;;;;;;;;;358.90;2329.60;;;;;;4971180;28;19969;-76
2021/11/02 16:53:22;;;;;;;;;;;358.90;2329.60;;;;;;4969364;28;19914;-76
2021/11/02 16:55:47;;;;;;;;;;;358.90;2329.60;;;;;;4966310;28;19918;-74
2021/11/02 16:58:20;;;;;;;;;;;358.90;2329.60;;;;;;4972779;28;19912;-80
2021/11/02 17:00:46;;;;;;;;;;;358.90;2329.60;;;;;;4975722;28;19910;-81
2021/11/02 17:03:14;;;;;;;;;;;358.90;2329.60;;;;;;4955149;28;19968;-78
2021/11/02 17:05:40;;;;;;;;;;;358.80;2329.60;;;;;;4955315;28;19939;-77
2021/11/02 17:08:07;;;;;;;;;;;358.90;2329.60;;;;;;4956005;28;19913;-80
2021/11/02 17:10:38;;;;;;;;;;;358.80;2329.60;;;;;;4964869;28;19910;-76
2021/11/02 17:13:04;;;;;;;;;;;358.80;2329.60;;;;;;4971592;28;19929;-78
2021/11/02 17:15:35;;;;;;;;;;;358.70;2329.60;;;;;;4969072;28;19949;-76
2021/11/02 17:18:03;;;;;;;;;;;358.80;2329.60;;;;;;4968914;28;19914;-76
2021/11/02 17:20:29;;;;;;;;;;;358.80;2329.60;;;;;;4959941;28;19910;-76
2021/11/02 17:22:55;;;;;;;;;;;358.80;2329.60;;;;;;4968548;28;19917;-78
2021/11/02 17:25:21;;;;;;;;;;;358.90;2329.60;;;;;;4958801;28;19910;-76
2021/11/02 17:27:48;;;;;;;;;;;358.80;2329.60;;;;;;4966151;28;19961;-81
2021/11/02 17:30:21;;;;;;;;;;;358.80;2329.60;;;;;;4971605;28;20036;-75
2021/11/02 17:32:46;;;;;;;;;;;358.80;2329.60;;;;;;4962391;28;20013;-77
2021/11/02 17:35:13;;;;;;;;;;;358.80;2329.60;;;;;;4973503;28;20000;-75
2021/11/02 17:37:39;;;;;;;;;;;358.80;2329.60;;;;;;4972467;28;19957;-76
2021/11/02 17:40:05;;;;;;;;;;;358.90;2329.60;;;;;;4973616;28;19910;-76
2021/11/02 17:42:31;;;;;;;;;;;358.90;2329.60;;;;;;4971929;28;19913;-78
2021/11/02 17:44:57;;;;;;;;;;;358.90;2329.60;;;;;;4973915;28;19912;-75
2021/11/02 17:47:22;;;;;;;;;;;358.90;2329.60;;;;;;4973736;28;20315;-76
2021/11/02 17:49:49;;;;;;;;;;;358.90;2329.60;;;;;;4973891;28;19906;-76
2021/11/02 17:52:15;;;;;;;;;;;358.90;2329.60;;;;;;4973543;28;20435;-83
2021/11/02 17:54:41;;;;;;;;;;;358.90;2329.60;;;;;;4972668;28;19993;-79
2021/11/02 17:57:07;;;;;;;;;;;358.90;2329.60;;;;;;4973701;28;19906;-83
2021/11/02 17:59:33;;;;;;;;;;;358.80;2329.60;;;;;;4976742;28;19958;-75
2021/11/02 18:01:59;;;;;;;;;;;358.80;2329.60;;;;;;4962881;28;20439;-75
2021/11/02 18:04:25;;;;;;;;;;;358.70;2329.60;;;;;;4962068;28;19907;-75
2021/11/02 18:06:51;;;;;;;;;;;358.60;2329.60;;;;;;4953405;29;19985;-78
2021/11/02 18:09:17;;;;;;;;;;;358.70;2329.60;;;;;;4971471;28;20349;-76
2021/11/02 18:11:43;;;;;;;;;;;358.70;2329.60;;;;;;4973518;28;19914;-77
2021/11/02 18:14:09;;;;;;;;;;;358.70;2329.60;;;;;;4973330;28;19906;-76
2021/11/02 18:16:35;;;;;;;;;;;358.60;2329.60;;;;;;4974965;28;19953;-77
2021/11/02 18:19:03;;;;;;;;;;;358.50;2329.60;;;;;;4973239;28;19910;-75
2021/11/02 18:21:29;;;;;;;;;;;358.50;2329.60;;;;;;4971696;28;19905;-76
2021/11/02 18:23:55;;;;;;;;;;;333.70;2329.60;;;;;;4971222;28;20352;-76
2021/11/02 18:26:22;;;;;;;;;;;333.60;2329.60;;;;;;4974642;28;19910;-76
2021/11/02 18:28:49;;;;;;;;;;;333.20;2329.60;;;;;;4977456;28;19917;-76
2021/11/02 18:31:15;;;;;;;;;;;333.60;2329.60;;;;;;4980099;28;19921;-74
2021/11/02 18:33:41;;;;;;;;;;;333.50;2329.60;;;;;;4978372;28;19914;-80
2021/11/02 18:36:09;;;;;;;;;;;333.50;2329.60;;;;;;4976717;28;19913;-74
2021/11/02 18:38:35;;;;;;;;;;;333.40;2329.60;;;;;;4981254;28;19937;-74
2021/11/02 18:41:02;;;;;;;;;;;333.40;2329.60;;;;;;4975250;28;20004;-74